Time;durP1;ratioP1;P1;durP2;ratioP2;P2;SDS_P1;SDS_P2;PMS_P1;PMS_P2;Temp;Humidity;BMP_temperature;BMP_pressure;BME280_temperature;BME280_humidity;BME280_pressure;Samples;Min_cycle;Max_cycle;Signal;HPM_P1;HPM_P2
2023/03/26 00:01:35;;;;;;;24.85;5.63;;;;;;;8.42;90.01;100604.19;5065251;28;20069;-81
2023/03/26 00:04:06;;;;;;;22.08;5.05;;;;;;;8.43;90.02;100605.94;5066040;28;20037;-81
2023/03/26 00:06:38;;;;;;;24.70;5.97;;;;;;;8.44;89.99;100603.28;5065898;28;20045;-80
2023/03/26 00:09:11;;;;;;;21.00;5.75;;;;;;;8.43;90.17;100613.81;5057485;28;20052;-80
2023/03/26 00:11:40;;;;;;;20.67;5.37;;;;;;;8.43;90.04;100614.69;5067722;28;20603;-80
2023/03/26 00:14:12;;;;;;;20.58;4.85;;;;;;;8.42;89.89;100604.19;5065844;28;20044;-77
2023/03/26 00:16:43;;;;;;;18.50;5.53;;;;;;;8.38;89.73;100604.28;5067329;28;20059;-80
2023/03/26 00:19:11;;;;;;;24.65;5.90;;;;;;;8.33;89.66;100590.41;5065601;28;20098;-79
2023/03/26 00:21:38;;;;;;;16.50;5.55;;;;;;;8.26;89.56;100591.47;5055084;28;20044;-79
2023/03/26 00:24:16;;;;;;;26.65;6.65;;;;;;;8.17;89.59;100591.69;5069259;28;20049;-80
2023/03/26 00:26:47;;;;;;;22.90;5.88;;;;;;;8.10;89.69;100598.84;5068664;28;20052;-79
2023/03/26 00:29:14;;;;;;;21.48;5.75;;;;;;;8.05;89.90;100592.81;5065245;28;20052;-80
2023/03/26 00:31:44;;;;;;;27.85;6.43;;;;;;;8.04;90.17;100593.72;5069861;28;20033;-82
2023/03/26 00:34:14;;;;;;;20.80;6.00;;;;;;;8.06;90.57;100591.94;5073562;28;20132;-83
2023/03/26 00:36:42;;;;;;;27.83;6.25;;;;;;;8.11;90.84;100586.56;5068362;28;20064;-83
2023/03/26 00:39:09;;;;;;;20.35;5.45;;;;;;;8.15;90.91;100582.97;5085397;28;20124;-82
2023/03/26 00:41:41;;;;;;;22.05;5.57;;;;;;;8.17;90.86;100595.16;5075858;28;20037;-82
2023/03/26 00:44:10;;;;;;;21.40;6.20;;;;;;;8.22;91.04;100587.16;5067570;28;20049;-83
2023/03/26 00:46:37;;;;;;;21.88;5.43;;;;;;;8.25;90.97;100589.72;5076697;28;21161;-82
2023/03/26 00:49:04;;;;;;;31.90;6.90;;;;;;;8.27;91.00;100579.19;5075846;28;20060;-82
2023/03/26 00:51:32;;;;;;;27.17;5.93;;;;;;;8.29;90.98;100580.00;5074728;28;20079;-82
2023/03/26 00:54:00;;;;;;;30.92;6.35;;;;;;;8.30;90.79;100572.06;5066389;28;20063;-82
2023/03/26 00:56:27;;;;;;;25.80;5.53;;;;;;;8.31;90.80;100575.59;5063723;28;20064;-83
2023/03/26 00:58:54;;;;;;;23.30;6.07;;;;;;;8.28;90.70;100571.28;5060041;28;21163;-81
2023/03/26 01:01:25;;;;;;;27.23;5.55;;;;;;;8.24;90.62;100572.25;5061246;28;20550;-81
2023/03/26 01:04:18;;;;;;;24.40;6.07;;;;;;;8.17;90.72;100561.03;5063290;28;20556;-80
2023/03/26 01:06:45;;;;;;;24.40;5.25;;;;;;;8.14;90.70;100560.25;5059591;28;20085;-80
2023/03/26 01:09:18;;;;;;;29.45;5.03;;;;;;;8.12;90.77;100551.53;5064099;28;20985;-80
2023/03/26 01:11:48;;;;;;;27.15;4.88;;;;;;;8.11;90.70;100561.19;5060701;28;20136;-81
2023/03/26 01:14:22;;;;;;;29.10;5.30;;;;;;;8.09;91.11;100557.72;5065767;28;20079;-81
2023/03/26 01:16:58;;;;;;;28.63;5.15;;;;;;;8.11;91.19;100552.44;5064172;28;20075;-81
2023/03/26 01:19:38;;;;;;;30.27;5.32;;;;;;;8.09;91.21;100550.69;5064481;28;20488;-82
2023/03/26 01:22:12;;;;;;;26.60;4.72;;;;;;;8.11;90.97;100548.06;5062794;28;20059;-80
2023/03/26 01:24:40;;;;;;;22.30;5.13;;;;;;;8.11;90.75;100545.44;5059796;28;20041;-80
2023/03/26 01:27:39;;;;;;;28.23;6.43;;;;;;;8.06;90.77;100532.41;5063606;28;20037;-75
2023/03/26 01:30:29;;;;;;;35.95;5.63;;;;;;;8.00;90.62;100539.59;5061307;28;20052;-75
2023/03/26 01:33:28;;;;;;;30.77;5.43;;;;;;;7.93;90.75;100536.22;5062726;28;20041;-78
2023/03/26 01:36:24;;;;;;;23.63;4.80;;;;;;;7.90;91.14;100523.19;5065807;28;20099;-78
2023/03/26 01:39:30;;;;;;;28.35;4.68;;;;;;;7.93;91.06;100517.88;5060584;28;20535;-77
2023/03/26 01:42:08;;;;;;;29.52;4.80;;;;;;;7.91;91.26;100511.78;5059521;28;20049;-79
2023/03/26 01:44:50;;;;;;;29.83;5.15;;;;;;;7.85;90.85;100512.78;5063757;28;20037;-79
2023/03/26 01:47:19;;;;;;;27.98;5.63;;;;;;;7.78;90.59;100498.94;5063208;28;20177;-77
2023/03/26 01:49:47;;;;;;;40.90;5.30;;;;;;;7.72;90.71;100511.38;5058085;28;20666;-77
2023/03/26 01:52:23;;;;;;;32.28;4.95;;;;;;;7.64;90.83;100497.56;5064177;28;20175;-77
2023/03/26 01:54:54;;;;;;;32.90;5.13;;;;;;;7.60;91.30;100492.41;5078247;28;20060;-77
2023/03/26 01:58:18;;;;;;;30.90;5.25;;;;;;;7.60;91.51;100487.16;5066298;28;20052;-78
2023/03/26 02:01:05;;;;;;;33.17;5.65;;;;;;;7.57;91.64;100478.50;5061020;28;20128;-79
2023/03/26 02:03:49;;;;;;;30.58;5.88;;;;;;;7.53;91.71;100480.31;5064490;28;20095;-79
2023/03/26 02:06:46;;;;;;;30.73;5.18;;;;;;;7.51;91.68;100484.75;5067360;28;20037;-78
2023/03/26 02:09:22;;;;;;;30.48;5.28;;;;;;;7.46;91.89;100479.63;5061432;28;20041;-79
2023/03/26 02:11:50;;;;;;;30.00;4.65;;;;;;;7.44;91.95;100480.53;5066029;28;20045;-79
2023/03/26 02:14:17;;;;;;;30.25;5.78;;;;;;;7.42;91.90;100466.59;5065628;28;20461;-79
2023/03/26 02:16:45;;;;;;;32.90;4.93;;;;;;;7.42;92.03;100463.97;5062313;28;20091;-79
2023/03/26 02:19:20;;;;;;;41.65;5.60;;;;;;;7.38;91.97;100468.41;5080471;28;20041;-78
2023/03/26 02:21:50;;;;;;;;;;;;;;;7.35;91.94;100462.38;5065176;28;20051;-77
2023/03/26 02:24:19;;;;;;;28.17;4.40;;;;;;;7.36;92.22;100470.22;5075167;28;19932;-79
2023/03/26 02:26:49;;;;;;;39.95;4.60;;;;;;;7.38;92.53;100457.91;5062361;28;20056;-79
2023/03/26 02:29:19;;;;;;;29.95;5.03;;;;;;;7.43;93.02;100463.94;5064493;28;20037;-78
2023/03/26 02:31:48;;;;;;;25.27;4.25;;;;;;;7.48;92.85;100457.72;5055878;28;20103;-79
2023/03/26 02:34:15;;;;;;;28.20;4.78;;;;;;;7.50;92.84;100456.78;5058602;28;20055;-78
2023/03/26 02:36:50;;;;;;;32.05;5.03;;;;;;;7.51;93.04;100452.41;5061658;28;20044;-79
2023/03/26 02:39:18;;;;;;;34.90;5.13;;;;;;;7.52;92.92;100452.38;5061770;28;20052;-78
2023/03/26 02:41:53;;;;;;;27.80;5.22;;;;;;;7.56;93.01;100450.53;5064468;28;20096;-78
2023/03/26 02:44:20;;;;;;;25.33;4.90;;;;;;;7.59;93.15;100442.56;5065753;28;20158;-78
2023/03/26 02:46:57;;;;;;;33.92;5.15;;;;;;;7.61;93.20;100444.28;5060016;28;21094;-78
2023/03/26 02:49:43;;;;;;;28.77;4.35;;;;;;;7.65;93.15;100431.06;5058844;28;20052;-80
2023/03/26 02:52:17;;;;;;;28.25;5.35;;;;;;;7.68;93.15;100433.63;5060352;28;20116;-80
2023/03/26 02:54:47;;;;;;;32.35;5.25;;;;;;;7.69;93.12;100430.94;5054123;28;20536;-81
2023/03/26 02:57:19;;;;;;;29.65;5.07;;;;;;;7.72;93.07;100428.25;5064705;28;20152;-82
2023/03/26 02:59:49;;;;;;;23.33;4.13;;;;;;;7.73;92.92;100424.75;5063890;28;20045;-81
2023/03/26 03:02:40;;;;;;;27.45;4.25;;;;;;;7.74;92.96;100421.22;5069364;28;20060;-82
2023/03/26 03:05:36;;;;;;;31.15;4.97;;;;;;;7.73;92.79;100416.03;5081153;28;20292;-81
2023/03/26 03:08:27;;;;;;;28.33;4.25;;;;;;;7.73;92.69;100410.78;5064842;28;20083;-82
2023/03/26 03:11:23;;;;;;;30.98;4.97;;;;;;;7.69;92.32;100409.13;5065922;28;20045;-82
2023/03/26 03:13:52;;;;;;;27.67;4.20;;;;;;;7.65;92.07;100408.34;5061104;28;20076;-79
2023/03/26 03:16:25;;;;;;;25.77;3.97;;;;;;;7.64;92.43;100406.59;5063379;28;20091;-79
2023/03/26 03:18:55;;;;;;;32.22;5.28;;;;;;;7.64;92.44;100406.59;5063858;28;20564;-80
2023/03/26 03:21:28;;;;;;;27.80;4.22;;;;;;;7.65;92.54;100399.59;5065506;28;20159;-80
2023/03/26 03:23:56;;;;;;;23.60;4.80;;;;;;;7.65;92.46;100395.22;5063141;28;20045;-79
2023/03/26 03:26:28;;;;;;;29.73;4.80;;;;;;;7.67;92.60;100398.66;5077752;28;20120;-79
2023/03/26 03:28:59;;;;;;;19.60;3.88;;;;;;;7.67;92.52;100382.06;5057950;28;20072;-79
2023/03/26 03:31:27;;;;;;;27.20;4.22;;;;;;;7.68;92.54;100384.63;5061699;28;20044;-79
2023/03/26 03:34:00;;;;;;;22.33;4.07;;;;;;;7.68;92.53;100382.00;5064109;28;20052;-81
2023/03/26 03:36:32;;;;;;;31.42;4.85;;;;;;;7.68;92.42;100374.13;5063107;28;20057;-81
2023/03/26 03:39:06;;;;;;;27.42;4.47;;;;;;;7.68;92.49;100376.75;5076917;28;20056;-82
2023/03/26 03:41:34;;;;;;;27.48;4.47;;;;;;;7.68;92.33;100374.13;5062704;28;20045;-81
2023/03/26 03:44:04;;;;;;;22.73;4.60;;;;;;;7.68;92.35;100371.50;5062383;28;20590;-81
2023/03/26 03:46:33;;;;;;;25.35;4.28;;;;;;;7.68;92.35;100368.03;5058881;28;20060;-82
2023/03/26 03:49:00;;;;;;;18.23;3.78;;;;;;;7.66;92.23;100362.84;5060381;28;20045;-81
2023/03/26 03:51:31;;;;;;;27.70;4.28;;;;;;;7.67;92.18;100359.31;5081004;28;20045;-83
2023/03/26 03:54:02;;;;;;;35.30;4.40;;;;;;;7.66;91.97;100359.34;5066491;28;21177;-84
2023/03/26 03:56:49;;;;;;;31.90;5.80;;;;;;;7.64;91.88;100361.13;5041261;28;20065;-80
2023/03/26 03:59:37;;;;;;;21.48;4.82;;;;;;;7.61;91.90;100351.59;5063053;28;20596;-80
2023/03/26 04:02:24;;;;;;;29.40;4.28;;;;;;;7.58;91.71;100349.91;5053691;28;20494;-80
2023/03/26 04:04:56;;;;;;;34.30;4.97;;;;;;;7.56;91.75;100345.59;5064227;28;20121;-80
2023/03/26 04:07:25;;;;;;;22.48;3.80;;;;;;;7.55;91.70;100349.97;5063006;28;20119;-77
2023/03/26 04:10:07;;;;;;;24.35;4.55;;;;;;;7.53;91.62;100338.66;5063812;28;20053;-77
2023/03/26 04:12:57;;;;;;;22.95;4.13;;;;;;;7.50;91.55;100340.50;5054413;28;20045;-76
2023/03/26 04:15:42;;;;;;;25.13;4.45;;;;;;;7.48;91.44;100342.31;5063883;28;20045;-77
2023/03/26 04:18:10;;;;;;;25.45;3.88;;;;;;;7.44;91.43;100333.66;5057991;28;20048;-78
2023/03/26 04:20:46;;;;;;;27.52;4.22;;;;;;;7.41;91.42;100331.97;5063002;28;20037;-81
2023/03/26 04:23:21;;;;;;;22.92;4.05;;;;;;;7.38;91.50;100326.78;5080581;28;20053;-81
2023/03/26 04:25:57;;;;;;;22.80;3.95;;;;;;;7.35;91.01;100326.91;5080103;28;20057;-82
2023/03/26 04:28:58;;;;;;;21.77;4.20;;;;;;;7.27;91.08;100316.59;5061234;28;20518;-82
2023/03/26 04:31:29;;;;;;;23.17;5.05;;;;;;;7.20;91.05;100315.03;5057579;28;20087;-82
2023/03/26 04:34:22;;;;;;;25.83;4.82;;;;;;;7.20;91.11;100312.41;5063994;28;20052;-82
2023/03/26 04:37:23;;;;;;;21.05;4.10;;;;;;;7.13;91.35;100314.31;5063830;28;20060;-81
2023/03/26 04:40:08;;;;;;;30.13;4.82;;;;;;;7.12;91.63;100307.34;5061708;28;20217;-80
2023/03/26 04:42:44;;;;;;;24.75;4.55;;;;;;;7.10;91.65;100301.28;5061244;28;20669;-80
2023/03/26 04:45:21;;;;;;;28.48;3.58;;;;;;;7.10;91.92;100292.56;5059767;28;20046;-82
2023/03/26 04:47:58;;;;;;;22.10;4.03;;;;;;;7.13;91.94;100292.47;5070328;28;20155;-82
2023/03/26 04:50:26;;;;;;;19.52;3.97;;;;;;;7.13;92.05;100290.72;5056906;28;20516;-81
2023/03/26 04:52:56;;;;;;;25.27;3.53;;;;;;;7.14;91.96;100284.56;5064559;28;20068;-83
2023/03/26 04:55:51;;;;;;;26.50;4.28;;;;;;;7.17;92.13;100280.16;5059924;28;20042;-79
2023/03/26 04:58:35;;;;;;;26.60;4.85;;;;;;;7.19;91.96;100280.97;5064820;28;20172;-77
2023/03/26 05:01:04;;;;;;;21.88;4.03;;;;;;;7.19;92.04;100275.72;5074991;28;20047;-77
2023/03/26 05:03:40;;;;;;;22.90;4.03;;;;;;;7.21;92.16;100268.69;5062189;28;20048;-77
2023/03/26 05:06:12;;;;;;;21.67;3.85;;;;;;;7.21;92.23;100271.31;5066249;28;20120;-75
2023/03/26 05:08:40;;;;;;;20.83;4.38;;;;;;;7.19;92.28;100262.59;5065182;28;20509;-77
2023/03/26 05:11:14;;;;;;;24.27;4.75;;;;;;;7.18;92.34;100261.75;5066645;28;20091;-78
2023/03/26 05:13:41;;;;;;;23.20;4.25;;;;;;;7.16;92.31;100260.94;5065657;28;20044;-78
2023/03/26 05:16:12;;;;;;;19.30;3.83;;;;;;;7.14;92.38;100262.72;5079923;28;20040;-78
2023/03/26 05:18:45;;;;;;;22.17;4.75;;;;;;;7.12;92.62;100256.69;5065204;28;20095;-78
2023/03/26 05:21:13;;;;;;;26.70;4.53;;;;;;;7.11;92.59;100250.56;5080097;28;20052;-80
2023/03/26 05:23:40;;;;;;;28.98;4.72;;;;;;;7.10;92.75;100243.59;5060880;28;20513;-77
2023/03/26 05:26:19;;;;;;;24.85;4.53;;;;;;;7.07;93.08;100243.66;5062267;28;20152;-77
2023/03/26 05:28:46;;;;;;;24.35;4.18;;;;;;;7.04;93.51;100235.03;5065898;28;20053;-76
2023/03/26 05:31:26;;;;;;;28.00;4.70;;;;;;;7.01;93.63;100230.72;5065602;28;20049;-77
2023/03/26 05:33:59;;;;;;;25.92;4.13;;;;;;;7.02;93.91;100223.75;5063843;28;20057;-77
2023/03/26 05:36:29;;;;;;;33.70;4.35;;;;;;;7.01;93.88;100219.41;5066866;28;20891;-77
2023/03/26 05:39:14;;;;;;;21.48;4.03;;;;;;;6.96;94.28;100217.75;5064108;28;20814;-76
2023/03/26 05:42:06;;;;;;;20.98;4.45;;;;;;;6.91;94.74;100209.16;5056366;28;20045;-78
2023/03/26 05:44:49;;;;;;;19.63;4.55;;;;;;;6.89;95.35;100203.09;5068410;28;20055;-79
2023/03/26 05:47:22;;;;;;;26.35;4.55;;;;;;;6.84;95.21;100187.47;5063910;28;20133;-80
2023/03/26 05:49:50;;;;;;;26.35;4.53;;;;;;;6.79;95.51;100185.88;5060101;28;20041;-80
2023/03/26 05:52:17;;;;;;;31.88;4.57;;;;;;;6.74;95.86;100185.13;5052420;28;20042;-81
2023/03/26 05:55:03;;;;;;;18.40;3.80;;;;;;;6.71;95.96;100200.94;5069818;28;20053;-79
2023/03/26 05:57:49;;;;;;;27.30;4.45;;;;;;;6.70;96.17;100183.50;5066834;28;20048;-76
2023/03/26 06:00:47;;;;;;;27.85;4.70;;;;;;;6.72;96.63;100185.16;5065493;28;20056;-76
2023/03/26 06:03:21;;;;;;;29.67;5.10;;;;;;;6.74;96.76;100186.00;5093106;28;20530;-80
2023/03/26 06:06:19;;;;;;;21.45;4.53;;;;;;;6.77;96.71;100180.66;5066753;28;20143;-79
2023/03/26 06:08:54;;;;;;;21.98;4.20;;;;;;;6.79;96.65;100176.25;5064438;28;20134;-77
2023/03/26 06:11:33;;;;;;;25.48;4.95;;;;;;;6.83;96.79;100177.91;5054794;28;20095;-79
2023/03/26 06:14:02;;;;;;;23.90;4.72;;;;;;;6.89;96.81;100179.50;5106249;28;20045;-78
2023/03/26 06:16:30;;;;;;;27.67;4.50;;;;;;;6.92;96.97;100174.16;5076015;28;20048;-78
2023/03/26 06:19:15;;;;;;;29.02;6.00;;;;;;;6.99;97.44;100165.25;5073784;28;20033;-79
2023/03/26 06:21:49;;;;;;;29.70;5.82;;;;;;;7.15;98.45;100162.22;5074438;28;20037;-78
2023/03/26 06:24:30;;;;;;;26.52;4.55;;;;;;;7.27;98.20;100163.66;5072957;28;20556;-77
2023/03/26 06:27:07;;;;;;;20.92;4.30;;;;;;;7.28;97.61;100160.13;5077644;28;20152;-78
2023/03/26 06:29:53;;;;;;;30.25;4.75;;;;;;;7.30;97.27;100158.31;5064578;28;20098;-79
2023/03/26 06:32:38;;;;;;;28.98;4.32;;;;;;;7.34;97.47;100146.84;5074282;28;20045;-79
2023/03/26 06:35:10;;;;;;;24.45;4.53;;;;;;;7.38;97.17;100142.38;5070178;28;20041;-80
2023/03/26 06:37:37;;;;;;;21.13;3.72;;;;;;;7.48;97.23;100143.84;5078560;28;20045;-79
2023/03/26 06:40:06;;;;;;;15.85;3.58;;;;;;;7.59;97.00;100148.75;5071924;28;20115;-80
2023/03/26 06:42:51;;;;;;;23.30;4.10;;;;;;;7.59;96.31;100141.78;5067816;28;21038;-79
2023/03/26 06:45:54;;;;;;;20.80;3.90;;;;;;;7.58;96.22;100147.91;5061813;28;20049;-80
2023/03/26 06:48:41;;;;;;;14.73;3.33;;;;;;;7.63;96.27;100142.53;5081216;28;20045;-84
2023/03/26 06:51:42;;;;;;;19.08;3.97;;;;;;;7.78;96.06;100136.81;5088502;28;20052;-82
2023/03/26 06:54:15;;;;;;;19.95;4.53;;;;;;;7.87;95.78;100132.22;5086601;28;20105;-83
2023/03/26 06:56:46;;;;;;;26.63;4.72;;;;;;;7.91;95.71;100139.94;5077279;28;20092;-81
2023/03/26 06:59:32;;;;;;;17.98;3.78;;;;;;;7.93;95.29;100143.41;5064272;28;20067;-81
2023/03/26 07:02:18;;;;;;;14.60;3.47;;;;;;;7.96;95.20;100136.31;5063477;28;20128;-80
2023/03/26 07:05:04;;;;;;;16.92;4.15;;;;;;;7.94;94.54;100139.00;5063829;28;21027;-80
2023/03/26 07:07:49;;;;;;;10.95;3.55;;;;;;;7.91;94.56;100142.56;5065839;28;20762;-80
2023/03/26 07:10:55;;;;;;;15.63;3.72;;;;;;;7.92;94.86;100139.06;5024189;28;20076;-79
2023/03/26 07:13:44;;;;;;;20.88;4.10;;;;;;;7.95;95.07;100142.47;5010127;28;20054;-79
2023/03/26 07:16:30;;;;;;;13.07;3.72;;;;;;;7.99;95.25;100138.84;5053442;28;20053;-80
2023/03/26 07:19:20;;;;;;;14.43;4.22;;;;;;;7.97;95.06;100140.66;5064344;28;20095;-81
2023/03/26 07:21:48;;;;;;;25.15;4.90;;;;;;;7.99;95.02;100138.84;5064731;28;20056;-78
2023/03/26 07:24:36;;;;;;;12.30;3.63;;;;;;;8.06;95.28;100137.75;5062955;28;20107;-80
2023/03/26 07:27:52;;;;;;;18.73;3.58;;;;;;;8.19;94.88;100135.63;5048347;28;20159;-82
2023/03/26 07:31:06;;;;;;;20.23;3.67;;;;;;;8.30;94.54;100136.09;5062074;28;20116;-79
2023/03/26 07:34:05;;;;;;;15.90;3.15;;;;;;;8.23;94.22;100130.22;5010537;28;20054;-81
2023/03/26 07:37:06;;;;;;;16.17;3.28;;;;;;;8.27;94.32;100132.72;5063821;28;20929;-76
2023/03/26 07:40:18;;;;;;;17.88;3.85;;;;;;;8.21;94.33;100133.78;5066413;28;20060;-78
2023/03/26 07:43:50;;;;;;;15.25;3.90;;;;;;;8.23;94.73;100126.72;5062859;28;20075;-74
2023/03/26 07:46:36;;;;;;;14.93;3.60;;;;;;;8.15;94.48;100120.84;5059777;28;20064;-78
2023/03/26 07:49:16;;;;;;;18.98;3.53;;;;;;;8.06;94.82;100127.25;5061829;28;20216;-74
2023/03/26 07:52:02;;;;;;;17.17;3.92;;;;;;;7.98;94.93;100121.38;5051449;28;20056;-68
2023/03/26 07:54:53;;;;;;;18.60;3.83;;;;;;;7.89;95.56;100120.75;5066484;28;20122;-70
2023/03/26 07:57:51;;;;;;;18.98;3.97;;;;;;;7.85;96.02;100116.50;5053379;28;20060;-68
2023/03/26 08:00:54;;;;;;;21.70;5.30;;;;;;;7.81;96.51;100119.28;5081331;28;20105;-67
2023/03/26 08:03:45;;;;;;;17.77;4.07;;;;;;;7.80;96.93;100112.28;5060623;28;20137;-68
2023/03/26 08:06:35;;;;;;;18.45;4.60;;;;;;;7.78;97.39;100110.56;5063959;28;20037;-68
2023/03/26 08:09:56;;;;;;;20.80;4.70;;;;;;;7.78;98.04;100105.31;5018371;28;20148;-69
2023/03/26 08:12:52;;;;;;;53.85;26.90;;;;;;;7.79;98.25;100106.19;5060766;28;20048;-68
2023/03/26 08:15:48;;;;;;;;;;;;;;;7.80;98.48;100107.06;5064251;28;20053;-69
2023/03/26 08:18:50;;;;;;;24.40;8.80;;;;;;;7.81;98.51;100106.16;5065592;28;20439;-68
2023/03/26 08:21:35;;;;;;;22.40;7.43;;;;;;;7.77;98.69;100106.25;5061514;28;20099;-67
2023/03/26 08:24:25;;;;;;;;;;;;;;;7.77;99.13;100106.25;5063793;28;20417;-68
2023/03/26 08:27:24;;;;;;;64.07;35.70;;;;;;;7.76;98.97;100101.91;5063548;28;19967;-69
2023/03/26 08:30:14;;;;;;;28.08;10.93;;;;;;;7.77;99.11;100100.13;5066736;28;20048;-67
2023/03/26 08:33:03;;;;;;;63.63;31.42;;;;;;;7.78;99.34;100099.22;5067821;28;20063;-68
2023/03/26 08:35:32;;;;;;;15.82;4.50;;;;;;;7.84;99.47;100091.16;5063076;28;20041;-68
2023/03/26 08:37:59;;;;;;;22.08;9.95;;;;;;;7.87;99.64;100098.94;5068058;28;20075;-68
2023/03/26 08:40:53;;;;;;;34.78;16.58;;;;;;;7.95;99.60;100096.09;5069120;28;20057;-68
2023/03/26 08:43:21;;;;;;;20.00;5.10;;;;;;;8.03;99.80;100091.47;5065333;28;20156;-68
2023/03/26 08:46:15;;;;;;;20.88;7.05;;;;;;;8.13;99.92;100096.41;5068993;28;20293;-68
2023/03/26 08:48:53;;;;;;;17.58;4.57;;;;;;;8.16;99.95;100097.16;5064336;28;20528;-68
2023/03/26 08:51:39;;;;;;;20.65;4.85;;;;;;;8.24;100.00;100096.94;5063758;28;20041;-69
2023/03/26 08:54:47;;;;;;;17.85;4.05;;;;;;;8.35;100.00;100088.69;5065481;28;20107;-76
2023/03/26 08:58:04;;;;;;;15.00;3.95;;;;;;;8.43;99.92;100080.56;5065734;28;20049;-73
2023/03/26 09:00:56;;;;;;;16.00;4.05;;;;;;;8.46;99.90;100076.06;5068388;28;20059;-75
2023/03/26 09:03:57;;;;;;;12.52;3.70;;;;;;;8.54;99.89;100070.56;5064524;28;20048;-74
2023/03/26 09:06:47;;;;;;;16.42;4.05;;;;;;;8.64;100.00;100076.41;5063670;28;20064;-74
2023/03/26 09:10:00;;;;;;;12.90;3.25;;;;;;;8.69;99.96;100074.44;5066857;28;20041;-76
2023/03/26 09:13:17;;;;;;;18.02;3.75;;;;;;;8.70;99.57;100076.16;5064032;28;20051;-77
2023/03/26 09:16:24;;;;;;;13.55;3.58;;;;;;;8.70;99.38;100078.78;5063860;28;20044;-76
2023/03/26 09:19:13;;;;;;;14.35;3.15;;;;;;;8.72;99.24;100074.34;5066573;28;20049;-73
2023/03/26 09:22:16;;;;;;;11.95;3.25;;;;;;;8.72;99.37;100076.97;5065537;28;20065;-73
2023/03/26 09:25:18;;;;;;;9.95;2.97;;;;;;;8.67;98.86;100074.50;5065556;28;20060;-75
2023/03/26 09:28:07;;;;;;;10.15;3.03;;;;;;;8.68;99.14;100078.84;5061660;28;20037;-74
2023/03/26 09:31:01;;;;;;;10.52;3.42;;;;;;;8.67;98.29;100078.91;5065518;28;20148;-75
2023/03/26 09:34:03;;;;;;;7.82;2.30;;;;;;;8.66;97.81;100067.53;5065408;28;20056;-74
2023/03/26 09:36:56;;;;;;;21.40;13.43;;;;;;;8.72;98.66;100073.47;5056439;28;20084;-76
2023/03/26 09:39:37;;;;;;;12.32;3.00;;;;;;;8.84;99.21;100073.94;5064240;28;20109;-76
2023/03/26 09:42:53;;;;;;;11.13;3.25;;;;;;;8.97;98.82;100076.97;5063843;28;20045;-75
2023/03/26 09:46:12;;;;;;;9.95;2.60;;;;;;;8.99;98.39;100069.00;5065468;28;20080;-77
2023/03/26 09:49:21;;;;;;;10.18;2.38;;;;;;;8.98;97.63;100070.81;5062213;28;20087;-77
2023/03/26 09:52:11;;;;;;;8.05;2.40;;;;;;;8.96;97.30;100070.00;5064104;28;20715;-75
2023/03/26 09:55:00;;;;;;;9.05;2.28;;;;;;;9.00;97.13;100066.31;5064476;28;20165;-73
2023/03/26 09:58:20;;;;;;;8.25;2.10;;;;;;;8.96;95.89;100072.63;5065326;28;20092;-78
2023/03/26 10:01:39;;;;;;;9.07;2.05;;;;;;;8.93;96.29;100064.84;5065472;28;20041;-74
2023/03/26 10:04:22;;;;;;;8.18;2.33;;;;;;;9.01;96.77;100072.44;5055690;28;20053;-78
2023/03/26 10:07:23;;;;;;;7.85;2.15;;;;;;;9.08;96.93;100067.84;5062404;28;20052;-79
2023/03/26 10:10:24;;;;;;;8.55;2.30;;;;;;;9.05;96.74;100065.31;5066680;28;20128;-77
2023/03/26 10:13:15;;;;;;;10.05;2.40;;;;;;;9.01;96.60;100070.66;5072244;28;20036;-81
2023/03/26 10:16:11;;;;;;;8.05;2.38;;;;;;;9.04;96.31;100060.97;5072581;28;20037;-78
2023/03/26 10:18:56;;;;;;;7.13;2.38;;;;;;;9.03;96.15;100070.63;5058026;28;20041;-77
2023/03/26 10:21:42;;;;;;;6.53;1.80;;;;;;;9.01;96.27;100068.03;5062377;28;20060;-75
2023/03/26 10:24:14;;;;;;;6.75;2.00;;;;;;;9.03;96.45;100068.00;5063287;28;20412;-76
2023/03/26 10:26:49;;;;;;;6.70;2.05;;;;;;;9.12;97.46;100067.66;5080699;28;20505;-74
2023/03/26 10:30:21;;;;;;;7.43;3.67;;;;;;;9.26;97.86;100071.56;5064242;28;20049;-74
2023/03/26 10:33:29;;;;;;;6.22;1.60;;;;;;;9.33;97.23;100073.06;5065407;28;20049;-74
2023/03/26 10:36:33;;;;;;;4.65;1.17;;;;;;;9.20;95.30;100074.41;5067066;28;20036;-75
2023/03/26 10:39:28;;;;;;;4.72;1.65;;;;;;;9.11;95.30;100079.09;5065785;28;20157;-75
2023/03/26 10:42:57;;;;;;;4.40;1.33;;;;;;;9.13;95.34;100079.03;5064131;28;20061;-74
2023/03/26 10:45:52;;;;;;;4.00;1.50;;;;;;;9.06;94.59;100072.28;5063721;28;20047;-75
2023/03/26 10:49:03;;;;;;;3.80;1.40;;;;;;;9.00;93.71;100079.47;5063832;28;20110;-75
2023/03/26 10:51:47;;;;;;;5.10;1.83;;;;;;;8.98;95.01;100086.56;5060128;28;20041;-75
2023/03/26 10:54:29;;;;;;;4.65;1.25;;;;;;;9.06;96.31;100085.44;5057242;28;20045;-74
2023/03/26 10:56:59;;;;;;;3.60;1.63;;;;;;;9.12;96.63;100075.56;5065132;28;20103;-73
2023/03/26 10:59:26;;;;;;;3.83;1.70;;;;;;;9.17;96.20;100080.66;5062759;28;20044;-75
2023/03/26 11:02:23;;;;;;;7.32;2.08;;;;;;;9.17;96.24;100081.50;5065174;28;20112;-76
2023/03/26 11:05:25;;;;;;;6.68;3.40;;;;;;;9.14;95.57;100080.75;5062243;28;20214;-74
2023/03/26 11:08:06;;;;;;;3.10;1.50;;;;;;;9.12;95.87;100086.06;5065810;28;20096;-76
2023/03/26 11:10:41;;;;;;;6.25;2.22;;;;;;;9.10;96.38;100080.00;5067200;28;20037;-74
2023/03/26 11:13:33;;;;;;;4.82;1.65;;;;;;;9.12;96.38;100087.84;5063689;28;20136;-75
2023/03/26 11:16:26;;;;;;;7.18;1.73;;;;;;;9.14;97.02;100079.00;5060986;28;20053;-75
2023/03/26 11:19:15;;;;;;;5.50;2.00;;;;;;;9.15;97.11;100082.47;5060100;28;20773;-76
2023/03/26 11:22:31;;;;;;;7.32;1.92;;;;;;;9.13;97.21;100079.03;5061467;28;20033;-74
2023/03/26 11:25:42;;;;;;;4.00;1.95;;;;;;;9.06;95.54;100095.94;5060230;28;20136;-77
2023/03/26 11:28:42;;;;;;;5.45;1.58;;;;;;;8.94;95.30;100097.25;5058105;28;20047;-79
2023/03/26 11:32:10;;;;;;;6.68;1.70;;;;;;;8.87;95.48;100096.63;5060781;28;20053;-75
2023/03/26 11:34:41;;;;;;;6.47;1.60;;;;;;;8.94;96.72;100095.47;5062973;28;20052;-76
2023/03/26 11:37:37;;;;;;;6.75;1.58;;;;;;;9.06;96.73;100088.06;5063472;28;20048;-77
2023/03/26 11:40:19;;;;;;;5.85;3.65;;;;;;;9.15;96.31;100091.22;5051377;28;20073;-76
2023/03/26 11:42:54;;;;;;;6.45;1.80;;;;;;;9.20;96.38;100095.44;5057281;28;20033;-74
2023/03/26 11:45:28;;;;;;;5.80;2.33;;;;;;;9.25;96.81;100091.75;5064789;28;20073;-78
2023/03/26 11:48:08;;;;;;;5.05;2.20;;;;;;;9.33;96.47;100099.34;5062775;28;20037;-78
2023/03/26 11:50:46;;;;;;;5.45;2.17;;;;;;;9.32;94.34;100095.00;5059316;28;20040;-79
2023/03/26 11:53:18;;;;;;;4.22;2.30;;;;;;;9.27;94.46;100097.81;5061099;28;20159;-78
2023/03/26 11:55:57;;;;;;;3.25;1.88;;;;;;;9.28;94.33;100098.66;5064640;28;20084;-79
2023/03/26 11:58:42;;;;;;;7.30;2.08;;;;;;;9.22;93.77;100097.09;5048557;28;20631;-77
2023/03/26 12:01:17;;;;;;;3.85;1.55;;;;;;;9.28;94.18;100096.91;5064132;28;20063;-75
2023/03/26 12:03:57;;;;;;;3.88;1.63;;;;;;;9.33;94.30;100097.56;5063847;28;20731;-78
2023/03/26 12:06:27;;;;;;;3.53;1.48;;;;;;;9.33;93.73;100100.19;5062934;28;20037;-77
2023/03/26 12:08:55;;;;;;;5.50;2.00;;;;;;;9.34;93.89;100101.06;5056545;28;20049;-80
2023/03/26 12:11:30;;;;;;;5.90;2.30;;;;;;;9.31;93.54;100104.66;5061751;28;20045;-78
2023/03/26 12:14:04;;;;;;;4.32;2.60;;;;;;;9.28;93.02;100102.16;5058823;28;20053;-78
2023/03/26 12:16:33;;;;;;;5.15;2.88;;;;;;;9.28;93.91;100112.69;5062144;28;20115;-78
2023/03/26 12:19:18;;;;;;;4.25;2.55;;;;;;;9.37;94.70;100100.09;5066982;28;20049;-78
2023/03/26 12:21:51;;;;;;;3.40;2.90;;;;;;;9.48;95.15;100101.41;5057910;28;20064;-78
2023/03/26 12:24:30;;;;;;;3.45;2.30;;;;;;;9.56;94.72;100105.53;5050615;28;20045;-78
2023/03/26 12:27:32;;;;;;;4.38;2.72;;;;;;;9.59;94.82;100103.66;5061943;28;20045;-77
2023/03/26 12:30:32;;;;;;;6.05;3.20;;;;;;;9.64;95.53;100092.94;5067660;28;20071;-76
2023/03/26 12:33:07;;;;;;;4.75;3.13;;;;;;;9.60;94.87;100099.22;5062402;28;20053;-77
2023/03/26 12:35:35;;;;;;;6.45;3.40;;;;;;;9.49;94.60;100107.53;5065892;28;20053;-76
2023/03/26 12:38:34;;;;;;;4.85;3.40;;;;;;;9.53;95.65;100105.63;5066643;28;20045;-77
2023/03/26 12:41:10;;;;;;;7.07;4.10;;;;;;;9.54;95.85;100107.38;5062514;28;20044;-76